Time;durP1;ratioP1;P1;durP2;ratioP2;P2;SDS_P1;SDS_P2;PMS_P1;PMS_P2;Temp;Humidity;BMP_temperature;BMP_pressure;BME280_temperature;BME280_humidity;BME280_pressure;Samples;Min_cycle;Max_cycle;Signal;HPM_P1;HPM_P2
2022/05/20 00:01:06;;;;;;;;;8.75;6.50;;;;;22.23;48.17;99872.56;5055343;28;45322;-63
2022/05/20 00:03:32;;;;;;;;;10.75;8.00;;;;;22.21;48.34;99867.28;5054756;28;45907;-63
2022/05/20 00:05:59;;;;;;;;;10.75;7.50;;;;;22.19;48.21;99868.38;5055611;28;45227;-62
2022/05/20 00:08:25;;;;;;;;;8.75;7.50;;;;;22.17;48.25;99870.31;5055459;28;45391;-64
2022/05/20 00:10:53;;;;;;;;;7.00;5.75;;;;;22.10;48.73;99869.94;5062032;28;45400;-64
2022/05/20 00:13:24;;;;;;;;;9.20;9.20;;;;;22.05;48.77;99865.88;5055211;28;45409;-64
2022/05/20 00:15:50;;;;;;;;;8.40;7.00;;;;;22.00;48.38;99870.72;5059083;28;45424;-64
2022/05/20 00:18:16;;;;;;;;;7.00;7.00;;;;;21.91;48.68;99872.25;5076085;28;45568;-64
2022/05/20 00:20:42;;;;;;;;;8.50;7.25;;;;;21.86;48.69;99864.53;5057764;28;45496;-65
2022/05/20 00:23:08;;;;;;;;;8.00;7.25;;;;;21.84;49.08;99877.22;5055884;28;46199;-64
2022/05/20 00:25:46;;;;;;;;;10.25;8.00;;;;;21.80;48.53;99872.19;5037466;28;45384;-64
2022/05/20 00:28:16;;;;;;;;;8.00;8.00;;;;;21.78;48.86;99871.47;5055212;28;45599;-64
2022/05/20 00:30:42;;;;;;;;;8.00;7.50;;;;;21.76;49.02;99878.78;5062305;28;45475;-65
2022/05/20 00:33:07;;;;;;;;;7.00;6.00;;;;;21.74;48.73;99876.22;5074659;28;45526;-64
2022/05/20 00:35:33;;;;;;;;;7.00;7.00;;;;;21.73;49.07;99884.38;5067404;28;45458;-64
2022/05/20 00:37:59;;;;;;;;;8.25;7.25;;;;;21.70;49.67;99889.97;5075851;28;45457;-64
2022/05/20 00:40:27;;;;;;;;;8.50;6.50;;;;;21.64;49.30;99885.88;5070674;28;45341;-65
2022/05/20 00:43:08;;;;;;;;;9.00;8.25;;;;;21.58;50.06;99881.84;5075455;28;45391;-65
2022/05/20 00:45:34;;;;;;;;;10.40;8.00;;;;;21.55;49.59;99894.63;5083838;27;45306;-65
2022/05/20 00:47:59;;;;;;;;;7.75;7.75;;;;;21.53;49.72;99897.41;5079757;27;45306;-65
2022/05/20 00:50:25;;;;;;;;;9.00;8.75;;;;;21.50;49.81;99897.63;5065187;27;45396;-65
2022/05/20 00:53:01;;;;;;;;;8.25;7.75;;;;;21.47;50.20;99895.16;5095727;27;46266;-65
2022/05/20 00:55:27;;;;;;;;;6.60;5.00;;;;;21.45;50.42;99896.28;5096065;27;45358;-65
2022/05/20 00:58:08;;;;;;;;;6.50;6.00;;;;;21.40;50.63;99898.44;5078554;27;45538;-65
2022/05/20 01:00:39;;;;;;;;;8.25;8.00;;;;;21.37;50.33;99899.50;5074969;28;45409;-65
2022/05/20 01:03:18;;;;;;;;;6.75;6.75;;;;;21.35;50.48;99890.69;5079078;27;46375;-64
2022/05/20 01:05:47;;;;;;;;;9.00;8.50;;;;;21.33;50.37;99895.31;5081490;27;45228;-65
2022/05/20 01:08:17;;;;;;;;;11.25;7.75;;;;;21.32;50.68;99906.16;5087195;27;45448;-64
2022/05/20 01:10:42;;;;;;;;;6.25;6.25;;;;;21.29;51.01;99891.13;5090731;27;45309;-64
2022/05/20 01:13:09;;;;;;;;;7.75;7.75;;;;;21.26;50.84;99903.94;5095582;27;45914;-65
2022/05/20 01:15:35;;;;;;;;;7.00;6.60;;;;;21.22;51.02;99909.50;5095709;27;45423;-65
2022/05/20 01:18:00;;;;;;;;;7.00;6.75;;;;;21.18;51.45;99907.97;5095439;27;45380;-65
2022/05/20 01:20:30;;;;;;;;;8.75;7.00;;;;;21.16;51.58;99906.34;5079224;27;45376;-64
2022/05/20 01:22:58;;;;;;;;;7.75;7.00;;;;;21.13;51.33;99909.25;5075012;28;46603;-64
2022/05/20 01:25:25;;;;;;;;;5.20;5.20;;;;;21.11;51.13;99900.50;5074953;28;45171;-65
2022/05/20 01:27:51;;;;;;;;;8.00;6.25;;;;;21.08;51.71;99906.06;5057062;28;45383;-64
2022/05/20 01:30:19;;;;;;;;;7.50;6.00;;;;;21.05;52.02;99904.44;5072130;27;45378;-64
2022/05/20 01:32:54;;;;;;;;;7.75;7.75;;;;;21.05;51.66;99912.50;5083629;27;45743;-64
2022/05/20 01:35:31;;;;;;;;;9.25;9.00;;;;;21.05;51.91;99908.94;5078232;27;45473;-64
2022/05/20 01:37:56;;;;;;;;;7.25;7.00;;;;;21.03;51.93;99902.84;5082284;27;45447;-65
2022/05/20 01:40:22;;;;;;;;;7.50;6.25;;;;;21.02;51.73;99901.97;5074794;28;45406;-65
2022/05/20 01:43:00;;;;;;;;;7.50;6.50;;;;;20.99;51.95;99902.19;5075026;28;45715;-64
2022/05/20 01:45:35;;;;;;;;;7.00;7.00;;;;;20.95;52.37;99905.22;5082569;27;45391;-65
2022/05/20 01:48:10;;;;;;;;;9.00;7.75;;;;;20.90;52.16;99901.03;5079269;27;45445;-65
2022/05/20 01:50:46;;;;;;;;;6.75;5.50;;;;;20.85;52.86;99899.63;5075108;28;45289;-65
2022/05/20 01:53:39;;;;;;;;;8.25;7.50;;;;;20.79;52.66;99903.59;5056557;28;46345;-65
2022/05/20 01:56:29;;;;;;;;;10.00;7.75;;;;;20.74;52.99;99902.22;5070079;27;45424;-65
2022/05/20 01:59:17;;;;;;;;;8.00;7.25;;;;;20.71;52.98;99892.56;5074757;28;45444;-65
2022/05/20 02:01:52;;;;;;;;;8.75;8.00;;;;;20.71;52.95;99895.22;5074495;28;45433;-65
2022/05/20 02:04:23;;;;;;;;;9.25;7.50;;;;;20.71;53.26;99899.72;5090744;27;46803;-65
2022/05/20 02:07:08;;;;;;;;;7.80;7.80;;;;;20.71;53.31;99903.28;5085132;27;45356;-64
2022/05/20 02:10:06;;;;;;;;;7.00;6.50;;;;;20.73;53.52;99892.44;5093957;27;45547;-64
2022/05/20 02:12:47;;;;;;;;;8.00;8.00;;;;;20.71;53.17;99897.06;5070011;27;45443;-65
2022/05/20 02:15:28;;;;;;;;;8.25;7.00;;;;;20.68;52.86;99897.25;5086068;27;45647;-65
2022/05/20 02:18:00;;;;;;;;;9.50;9.50;;;;;20.64;53.35;99896.59;5085370;27;45416;-65
2022/05/20 02:20:48;;;;;;;;;8.25;8.25;;;;;20.61;53.80;99902.19;5098470;27;45441;-65
2022/05/20 02:23:42;;;;;;;;;9.25;7.75;;;;;20.60;53.73;99902.31;5098313;27;45310;-64
2022/05/20 02:26:12;;;;;;;;;12.50;9.75;;;;;20.59;53.51;99893.41;5098510;27;46668;-65
2022/05/20 02:28:42;;;;;;;;;7.75;7.00;;;;;20.58;53.76;99893.50;5079854;27;45407;-65
2022/05/20 02:31:31;;;;;;;;;8.50;6.50;;;;;20.56;53.79;99898.97;5078347;27;45310;-64
2022/05/20 02:33:57;;;;;;;;;9.25;8.00;;;;;20.54;54.29;99899.06;5035283;28;45441;-64
2022/05/20 02:36:28;;;;;;;;;10.75;10.75;;;;;20.50;54.69;99900.25;5034984;28;46356;-64
2022/05/20 02:38:54;;;;;;;;;12.50;11.75;;;;;20.40;55.15;99898.31;5041937;28;45412;-65
2022/05/20 02:41:29;;;;;;;;;11.75;11.50;;;;;20.36;55.93;99900.34;5055010;28;45461;-65
2022/05/20 02:43:55;;;;;;;;;9.25;9.25;;;;;20.35;55.82;99893.22;5055169;28;45535;-65
2022/05/20 02:46:21;;;;;;;;;11.25;11.00;;;;;20.34;56.11;99902.22;5041247;28;45883;-64
2022/05/20 02:48:46;;;;;;;;;14.75;13.75;;;;;20.35;55.93;99897.72;5054727;28;45432;-65
2022/05/20 02:51:11;;;;;;;;;12.50;10.00;;;;;20.33;55.99;99897.81;5054988;28;45323;-64
2022/05/20 02:53:37;;;;;;;;;10.00;10.00;;;;;20.32;56.69;99889.88;5054747;28;45519;-64
2022/05/20 02:56:03;;;;;;;;;14.00;13.00;;;;;20.32;56.94;99895.25;5054776;28;45686;-65
2022/05/20 03:04:11;;;;;;;;;12.75;12.50;;;;;20.19;57.21;99887.19;5059044;27;45491;-65
2022/05/20 03:06:39;;;;;;;;;12.00;10.25;;;;;20.19;57.07;99892.53;5097693;27;46197;-64
2022/05/20 03:09:06;;;;;;;;;7.00;5.75;;;;;20.15;57.33;99889.22;5095760;27;45565;-64
2022/05/20 03:11:34;;;;;;;;;11.00;10.00;;;;;20.08;56.86;99892.41;5079331;27;45352;-65
2022/05/20 03:14:04;;;;;;;;;9.75;8.00;;;;;20.00;56.49;99886.69;5097403;27;45544;-64
2022/05/20 03:16:40;;;;;;;;;12.75;11.75;;;;;19.93;56.92;99896.13;5097221;27;45561;-64
2022/05/20 03:19:06;;;;;;;;;9.75;9.75;;;;;19.89;57.06;99898.13;5097209;27;45392;-64
2022/05/20 03:21:42;;;;;;;;;11.00;10.50;;;;;19.86;56.84;99891.16;5097517;27;45364;-64
2022/05/20 03:24:09;;;;;;;;;9.75;8.75;;;;;19.85;57.50;99894.78;5082818;27;45290;-65
2022/05/20 03:26:36;;;;;;;;;9.50;8.75;;;;;19.81;57.27;99895.94;5097458;27;46590;-64
2022/05/20 03:29:03;;;;;;;;;9.75;8.75;;;;;19.76;57.30;99897.22;5094522;27;45407;-65
2022/05/20 03:31:31;;;;;;;;;11.50;10.25;;;;;19.71;57.09;99886.81;5076440;28;45293;-64
2022/05/20 03:33:57;;;;;;;;;14.75;11.25;;;;;19.69;57.37;99887.88;5096787;27;45452;-65
2022/05/20 03:36:23;;;;;;;;;11.00;10.75;;;;;19.70;57.42;99885.09;5083853;27;47118;-64
2022/05/20 03:38:48;;;;;;;;;12.00;10.00;;;;;19.71;57.89;99875.25;5096545;27;45620;-64
2022/05/20 03:41:14;;;;;;;;;13.25;11.25;;;;;19.72;58.33;99882.31;5087972;27;45383;-65
2022/05/20 03:43:39;;;;;;;;;14.00;11.25;;;;;19.71;58.49;99884.16;5076328;28;45570;-64
2022/05/20 03:46:05;;;;;;;;;13.75;13.00;;;;;19.74;58.62;99883.09;5076499;28;46105;-64
2022/05/20 03:48:30;;;;;;;;;12.75;11.75;;;;;19.76;58.83;99879.34;5076060;28;45429;-65
2022/05/20 03:51:13;;;;;;;;;13.75;13.00;;;;;19.77;58.60;99883.72;5076723;28;45367;-64
2022/05/20 03:53:39;;;;;;;;;10.75;10.50;;;;;19.76;58.77;99882.03;5076679;28;45465;-64
2022/05/20 03:56:05;;;;;;;;;10.00;10.00;;;;;19.68;58.57;99887.00;5076534;28;45981;-65
2022/05/20 03:58:31;;;;;;;;;13.50;12.00;;;;;19.61;59.26;99880.34;5076344;28;45410;-65
2022/05/20 04:03:42;;;;;;;;;11.00;11.00;;;;;19.57;59.55;99881.50;5064621;28;45323;-64
2022/05/20 04:06:08;;;;;;;;;14.00;11.00;;;;;19.56;59.32;99889.63;5055455;28;46354;-64
2022/05/20 04:08:33;;;;;;;;;9.00;9.00;;;;;19.56;59.86;99878.94;5055842;28;45358;-65
2022/05/20 04:10:58;;;;;;;;;13.00;11.25;;;;;19.54;59.66;99876.34;5062981;28;45623;-64
2022/05/20 04:13:24;;;;;;;;;11.25;10.25;;;;;19.52;59.63;99880.94;5056057;28;45421;-66
2022/05/20 04:15:50;;;;;;;;;14.75;13.50;;;;;19.52;59.86;99884.47;5055863;28;46237;-65
2022/05/20 04:18:15;;;;;;;;;10.50;9.25;;;;;19.51;59.81;99879.22;5059673;28;45436;-63
2022/05/20 04:20:41;;;;;;;;;12.00;12.00;;;;;19.44;60.22;99873.38;5051130;28;45225;-63
2022/05/20 04:23:06;;;;;;;;;11.25;11.00;;;;;19.42;59.75;99869.09;5055707;28;45299;-63
2022/05/20 04:25:32;;;;;;;;;11.50;11.50;;;;;19.43;59.47;99884.19;5058114;28;46539;-65
2022/05/20 04:27:57;;;;;;;;;14.50;11.50;;;;;19.45;59.47;99884.91;5055659;28;45383;-65
2022/05/20 04:30:22;;;;;;;;;12.50;10.75;;;;;19.46;59.81;99878.63;5065885;28;45584;-63
2022/05/20 04:32:48;;;;;;;;;10.25;9.00;;;;;19.46;59.45;99870.59;5057258;28;45663;-65
2022/05/20 04:35:13;;;;;;;;;10.75;9.75;;;;;19.47;60.14;99880.34;5068676;28;46101;-65
2022/05/20 04:37:39;;;;;;;;;14.75;13.50;;;;;19.47;59.64;99881.19;5054974;28;45346;-66
2022/05/20 04:40:05;;;;;;;;;14.50;12.25;;;;;19.51;60.17;99881.91;5037031;28;45692;-65
2022/05/20 04:48:00;;;;;;;;;11.75;11.75;;;;;19.68;59.77;99883.47;5081464;27;45514;-65
2022/05/20 04:50:25;;;;;;;;;13.00;12.00;;;;;19.72;59.33;99883.19;5087373;27;45346;-66
2022/05/20 04:52:51;;;;;;;;;10.50;8.75;;;;;19.80;59.48;99888.00;5075231;28;45400;-66
2022/05/20 04:55:16;;;;;;;;;15.00;11.00;;;;;19.84;58.73;99892.22;5057186;28;47354;-65
2022/05/20 04:57:46;;;;;;;;;11.00;10.00;;;;;19.89;58.98;99910.66;5074996;28;45420;-66
2022/05/20 05:00:19;;;;;;;;;9.50;8.00;;;;;19.89;59.73;99903.47;5074830;28;45425;-69
2022/05/20 05:02:45;;;;;;;;;11.75;11.50;;;;;19.89;59.02;99914.19;5056029;28;45354;-58
2022/05/20 05:05:15;;;;;;;;;13.00;11.25;;;;;19.94;58.97;99912.03;5075081;28;45414;-58
2022/05/20 05:07:47;;;;;;;;;10.50;9.25;;;;;20.00;58.60;99914.31;5074403;28;45428;-58
2022/05/20 05:10:15;;;;;;;;;11.50;10.50;;;;;20.03;58.24;99922.16;5079237;27;45455;-59
2022/05/20 05:12:41;;;;;;;;;16.75;12.75;;;;;20.07;58.60;99912.13;5074014;27;45281;-58
2022/05/20 05:15:07;;;;;;;;;11.25;9.25;;;;;20.03;58.12;99915.94;5064040;27;45670;-58
2022/05/20 05:20:20;;;;;;;;;11.00;11.00;;;;;19.95;58.58;99920.94;5079592;27;45356;-59
2022/05/20 05:22:48;;;;;;;;;10.50;10.00;;;;;19.94;58.59;99927.28;5084211;27;45515;-59
2022/05/20 05:25:14;;;;;;;;;12.50;11.00;;;;;19.94;58.11;99916.56;5079422;27;45802;-58
2022/05/20 05:27:40;;;;;;;;;10.00;9.75;;;;;19.91;58.44;99922.97;5079592;27;45400;-58
2022/05/20 05:30:07;;;;;;;;;11.00;9.25;;;;;19.87;57.57;99924.13;5083120;27;45539;-59
2022/05/20 05:32:42;;;;;;;;;9.00;8.25;;;;;19.83;58.35;99928.81;5085407;27;45558;-58
2022/05/20 05:35:13;;;;;;;;;9.50;9.25;;;;;19.80;58.28;99928.16;5082777;27;46534;-58
2022/05/20 05:37:49;;;;;;;;;10.00;9.25;;;;;19.79;58.19;99924.63;5077278;27;45484;-58
2022/05/20 05:40:18;;;;;;;;;10.25;10.00;;;;;19.75;58.46;99924.94;5083345;27;45398;-58
2022/05/20 05:42:43;;;;;;;;;14.75;11.75;;;;;19.75;58.69;99933.81;5080642;27;45464;-57
2022/05/20 05:45:11;;;;;;;;;12.00;10.00;;;;;19.77;58.66;99939.09;5078867;27;45472;-58
2022/05/20 05:47:36;;;;;;;;;9.75;9.50;;;;;19.78;58.13;99936.28;5074730;27;45535;-58
2022/05/20 05:50:03;;;;;;;;;12.75;12.75;;;;;19.82;58.34;99935.13;5080299;27;45528;-58
2022/05/20 05:52:28;;;;;;;;;12.50;10.00;;;;;19.84;58.26;99933.22;5087560;27;45605;-58
2022/05/20 05:54:53;;;;;;;;;9.00;9.00;;;;;19.83;58.25;99936.84;5081741;27;45375;-58
2022/05/20 05:57:19;;;;;;;;;11.00;11.00;;;;;19.75;58.89;99936.50;5082884;27;45530;-58
2022/05/20 05:59:44;;;;;;;;;13.75;11.25;;;;;19.73;58.86;99927.72;5081215;27;45740;-58
2022/05/20 06:02:10;;;;;;;;;9.00;8.25;;;;;19.76;58.76;99934.69;5080821;27;45502;-58
2022/05/20 06:04:35;;;;;;;;;9.50;9.00;;;;;19.74;58.62;99924.09;5077630;27;46171;-58
2022/05/20 06:07:01;;;;;;;;;10.00;10.00;;;;;19.72;58.63;99931.34;5082720;27;45401;-58
2022/05/20 06:09:26;;;;;;;;;11.00;11.00;;;;;19.74;58.37;99920.53;5090017;27;45555;-58
2022/05/20 06:11:52;;;;;;;;;10.00;8.00;;;;;19.79;58.60;99921.09;5078340;27;45582;-58
2022/05/20 06:14:18;;;;;;;;;10.00;9.00;;;;;19.82;58.63;99927.09;5084315;27;45413;-58
2022/05/20 06:16:44;;;;;;;;;13.75;10.00;;;;;19.90;58.27;99928.44;5058862;27;45384;-58
2022/05/20 06:19:10;;;;;;;;;8.50;7.50;;;;;19.97;58.05;99919.88;5088720;27;45388;-57
2022/05/20 06:21:37;;;;;;;;;10.25;10.25;;;;;20.04;57.68;99918.53;5063336;27;45535;-58
2022/05/20 06:24:03;;;;;;;;;9.00;7.75;;;;;20.13;57.74;99915.22;5070510;27;46380;-58
2022/05/20 06:26:28;;;;;;;;;11.25;8.50;;;;;20.26;57.44;99920.63;5078260;27;45475;-59
2022/05/20 06:28:54;;;;;;;;;11.00;10.75;;;;;20.35;57.32;99914.66;5070770;27;45467;-64
2022/05/20 06:31:19;;;;;;;;;12.75;9.25;;;;;20.43;57.06;99914.19;5083437;27;45445;-63
2022/05/20 06:33:45;;;;;;;;;9.75;9.00;;;;;20.50;56.75;99913.63;5085318;27;45735;-63
2022/05/20 06:41:38;;;;;;;;;10.25;8.75;;;;;20.69;57.66;99925.78;5083274;27;45499;-61
2022/05/20 06:44:04;;;;;;;;;12.50;9.25;;;;;20.71;57.34;99914.00;5086447;27;46046;-63
2022/05/20 06:46:30;;;;;;;;;10.50;10.50;;;;;20.78;56.57;99922.47;5083391;27;45490;-63
2022/05/20 06:48:56;;;;;;;;;11.25;10.25;;;;;20.80;56.22;99921.38;5079846;27;45417;-63
2022/05/20 06:51:24;;;;;;;;;12.00;10.50;;;;;20.82;56.16;99918.59;5083474;27;45408;-63
2022/05/20 06:53:54;;;;;;;;;9.50;9.50;;;;;20.86;56.01;99922.78;5078960;27;45584;-63
2022/05/20 06:56:24;;;;;;;;;11.25;11.25;;;;;20.85;56.31;99918.38;5083846;27;45497;-63
2022/05/20 06:58:50;;;;;;;;;11.25;10.25;;;;;20.83;56.38;99923.00;5078396;27;45520;-64
2022/05/20 07:01:16;;;;;;;;;10.00;10.00;;;;;20.82;56.59;99918.59;5080556;27;45535;-63
2022/05/20 07:03:42;;;;;;;;;13.25;7.25;;;;;20.81;57.19;99915.06;5077720;27;45510;-64
2022/05/20 07:06:08;;;;;;;;;8.75;8.00;;;;;20.83;56.58;99910.44;5084593;27;45410;-63
2022/05/20 07:08:35;;;;;;;;;13.25;10.25;;;;;20.90;55.89;99902.84;5069772;27;45611;-63
2022/05/20 07:11:02;;;;;;;;;9.50;9.25;;;;;20.95;56.04;99897.19;5058669;27;45550;-64
2022/05/20 07:13:29;;;;;;;;;9.75;9.00;;;;;21.00;56.16;99895.00;5060250;27;46657;-64
2022/05/20 07:15:55;;;;;;;;;11.00;9.25;;;;;21.06;55.78;99891.91;5091434;27;45493;-62
2022/05/20 07:18:21;;;;;;;;;11.00;9.75;;;;;21.13;55.93;99885.97;5076044;28;45409;-61
2022/05/20 07:20:46;;;;;;;;;11.00;10.00;;;;;21.21;56.07;99886.34;5075724;27;45394;-62
2022/05/20 07:23:11;;;;;;;;;9.25;8.00;;;;;21.32;55.36;99895.41;5085570;27;46281;-62
2022/05/20 07:25:38;;;;;;;;;8.50;8.50;;;;;21.40;55.22;99879.66;5077694;27;45417;-62
2022/05/20 07:28:05;;;;;;;;;10.50;8.25;;;;;21.46;54.76;99888.09;5082995;27;45395;-62
2022/05/20 07:30:31;;;;;;;;;10.00;8.50;;;;;21.55;53.69;99883.88;5080745;27;45400;-62
2022/05/20 07:32:56;;;;;;;;;10.50;9.25;;;;;21.64;52.95;99885.88;5073931;28;45400;-62
2022/05/20 07:35:22;;;;;;;;;12.00;8.75;;;;;21.74;53.71;99889.63;5056151;28;45471;-62
2022/05/20 07:37:49;;;;;;;;;9.50;9.00;;;;;21.86;53.72;99887.84;5074199;28;45717;-62
2022/05/20 07:40:14;;;;;;;;;10.00;8.75;;;;;21.99;53.31;99877.91;5073469;28;45448;-62
2022/05/20 07:42:40;;;;;;;;;8.75;8.00;;;;;22.09;53.14;99880.81;5079590;27;45528;-63
2022/05/20 07:45:06;;;;;;;;;12.25;9.25;;;;;22.18;52.59;99872.88;5094311;27;45364;-62
2022/05/20 07:47:31;;;;;;;;;9.25;9.25;;;;;22.23;53.60;99880.59;5065423;28;45468;-62
2022/05/20 07:49:57;;;;;;;;;11.00;10.00;;;;;22.28;52.65;99871.22;5075628;27;45350;-62
2022/05/20 07:55:08;;;;;;;;;11.40;9.40;;;;;22.42;52.42;99856.75;5082632;27;45369;-62
2022/05/20 07:57:35;;;;;;;;;7.00;7.00;;;;;22.49;52.88;99860.63;5095306;27;45451;-62
2022/05/20 08:00:04;;;;;;;;;10.50;9.25;;;;;22.60;52.03;99865.19;5056745;28;45465;-62
2022/05/20 08:02:30;;;;;;;;;10.00;9.00;;;;;22.67;52.21;99855.66;5074457;28;46387;-62
2022/05/20 08:04:58;;;;;;;;;13.80;10.00;;;;;22.81;51.89;99851.91;5057017;28;45274;-62
2022/05/20 08:07:38;;;;;;;;;9.00;8.25;;;;;22.91;52.21;99853.78;5075329;28;45424;-62
2022/05/20 08:10:21;;;;;;;;;11.25;9.75;;;;;23.04;51.72;99842.91;5075565;28;45417;-62
2022/05/20 08:12:47;;;;;;;;;11.00;10.25;;;;;23.16;52.18;99852.66;5081640;27;46192;-62
2022/05/20 08:15:14;;;;;;;;;11.00;10.60;;;;;23.27;51.20;99841.91;5095742;27;45404;-62
2022/05/20 08:17:43;;;;;;;;;12.75;10.75;;;;;23.36;50.23;99824.16;5095443;27;45255;-63
2022/05/20 08:20:16;;;;;;;;;10.50;9.00;;;;;23.49;51.04;99834.75;5077526;27;45551;-63
2022/05/20 08:22:41;;;;;;;;;11.00;9.00;;;;;23.61;50.72;99836.50;5088639;27;46811;-62
2022/05/20 08:25:07;;;;;;;;;10.50;8.00;;;;;23.74;50.61;99825.56;5075032;28;45405;-62
2022/05/20 08:27:33;;;;;;;;;9.25;8.25;;;;;23.83;49.47;99814.84;5079058;27;45365;-63
2022/05/20 08:30:08;;;;;;;;;9.50;9.00;;;;;23.93;48.62;99812.25;5049325;27;45617;-63
2022/05/20 08:32:34;;;;;;;;;8.00;8.00;;;;;24.04;48.07;99816.72;5034031;27;46646;-62
2022/05/20 08:34:59;;;;;;;;;9.25;9.00;;;;;24.18;48.88;99806.47;5062958;27;45773;-63
2022/05/20 08:37:24;;;;;;;;;10.25;9.25;;;;;24.31;48.66;99803.63;5081976;27;45504;-63
2022/05/20 08:39:50;;;;;;;;;8.25;7.75;;;;;24.44;48.60;99804.28;5075400;27;45549;-63
2022/05/20 08:42:20;;;;;;;;;7.00;7.00;;;;;24.56;47.47;99805.91;5076190;27;46413;-63
2022/05/20 08:44:46;;;;;;;;;10.00;9.00;;;;;24.67;47.51;99791.47;5086577;27;45467;-63
2022/05/20 08:47:26;;;;;;;;;6.00;5.75;;;;;24.82;48.04;99787.44;5075838;27;45411;-63
2022/05/20 08:49:57;;;;;;;;;10.25;8.75;;;;;25.01;46.45;99795.63;5078488;27;45628;-63
2022/05/20 08:52:22;;;;;;;;;9.75;9.00;;;;;25.20;46.23;99778.66;5077551;27;46132;-63
2022/05/20 08:54:48;;;;;;;;;4.50;4.50;;;;;25.42;45.57;99779.41;5087049;27;45459;-64
2022/05/20 08:57:27;;;;;;;;;10.00;8.50;;;;;25.72;44.84;99773.94;5075278;27;46105;-63
2022/05/20 08:59:53;;;;;;;;;6.25;5.50;;;;;25.97;43.10;99767.97;5081902;27;45521;-63
2022/05/20 09:02:20;;;;;;;;;9.25;6.50;;;;;26.22;42.79;99762.94;5080365;27;45628;-63
2022/05/20 09:04:46;;;;;;;;;8.00;8.00;;;;;26.41;42.13;99761.06;5076121;27;45339;-63
2022/05/20 09:07:15;;;;;;;;;7.50;7.25;;;;;26.64;42.58;99756.16;5088111;27;46526;-63
2022/05/20 09:09:55;;;;;;;;;7.75;7.00;;;;;26.90;41.27;99750.06;5070379;27;45523;-62
2022/05/20 09:12:31;;;;;;;;;5.00;4.00;;;;;27.16;40.11;99758.34;5082023;27;46311;-63
2022/05/20 09:18:06;;;;;;;;;8.75;8.25;;;;;27.59;39.04;99741.41;5079535;27;45522;-66
2022/05/20 09:20:32;;;;;;;;;7.75;6.00;;;;;27.75;38.55;99737.00;5074432;27;45505;-66
2022/05/20 09:23:03;;;;;;;;;8.50;7.00;;;;;27.91;37.41;99728.16;5074221;27;45526;-66
2022/05/20 09:25:34;;;;;;;;;3.40;3.40;;;;;28.07;37.56;99736.41;5088962;27;45422;-66
2022/05/20 09:28:27;;;;;;;;;4.20;4.20;;;;;28.25;36.41;99725.53;5081421;27;45472;-66
2022/05/20 09:31:12;;;;;;;;;4.75;4.75;;;;;28.45;35.22;99718.91;5078595;27;45483;-66
2022/05/20 09:34:08;;;;;;;;;4.60;3.80;;;;;28.66;34.93;99718.47;5079204;27;46357;-66
2022/05/20 09:36:48;;;;;;;;;4.20;4.20;;;;;28.87;33.35;99711.81;5084283;27;45557;-67
2022/05/20 09:39:24;;;;;;;;;4.80;4.00;;;;;29.09;33.16;99711.22;5084628;27;45345;-67
2022/05/20 09:41:55;;;;;;;;;5.25;4.50;;;;;29.29;33.25;99709.06;5087920;27;45553;-67
2022/05/20 09:44:44;;;;;;;;;4.60;4.00;;;;;29.46;32.41;99700.81;5087375;27;45447;-67
2022/05/20 09:47:15;;;;;;;;;5.20;4.20;;;;;29.65;32.91;99705.06;5080925;27;45825;-66
2022/05/20 09:49:52;;;;;;;;;3.00;3.00;;;;;29.79;31.29;99692.66;5067569;27;45565;-67
2022/05/20 09:52:51;;;;;;;;;4.50;3.00;;;;;29.95;32.75;99700.81;5081021;27;45595;-62
2022/05/20 09:55:29;;;;;;;;;4.40;4.00;;;;;30.11;30.27;99699.97;5091770;27;45507;-63
2022/05/20 09:58:08;;;;;;;;;4.00;3.60;;;;;30.24;31.76;99696.72;5079032;27;45344;-63
2022/05/20 10:00:35;;;;;;;;;3.80;3.80;;;;;30.36;30.40;99693.44;5064804;27;45590;-63
2022/05/20 10:03:30;;;;;;;;;4.00;4.00;;;;;30.49;30.32;99692.91;5085834;27;45582;-63
2022/05/20 10:06:14;;;;;;;;;5.40;3.40;;;;;30.61;30.05;99682.53;5091707;27;46799;-63
2022/05/20 10:08:53;;;;;;;;;3.20;3.20;;;;;30.76;29.29;99687.03;5080536;27;45339;-63
2022/05/20 10:11:19;;;;;;;;;4.75;4.25;;;;;30.89;28.58;99689.19;5083096;27;45487;-63
2022/05/20 10:14:02;;;;;;;;;3.75;3.00;;;;;31.04;29.45;99695.56;5079336;27;45438;-63
2022/05/20 10:17:09;;;;;;;;;4.00;4.00;;;;;31.15;27.66;99667.97;5089858;27;46670;-63
2022/05/20 10:19:57;;;;;;;;;5.20;3.80;;;;;31.29;28.09;99676.41;5079103;27;45347;-63
2022/05/20 10:22:26;;;;;;;;;10.00;6.40;;;;;31.41;29.14;99666.78;5091741;27;45333;-63
2022/05/20 10:25:12;;;;;;;;;4.25;3.00;;;;;31.51;28.95;99673.66;5077496;28;45414;-63
2022/05/20 10:27:49;;;;;;;;;6.00;5.00;;;;;31.65;27.64;99655.72;5080076;27;45533;-60
2022/05/20 10:33:06;;;;;;;;;4.75;3.75;;;;;31.88;26.43;99650.19;5084380;27;45314;-62
2022/05/20 10:35:50;;;;;;;;;5.75;4.00;;;;;31.99;26.81;99654.38;5087657;27;45566;-62
2022/05/20 10:39:02;;;;;;;;;1.75;1.75;;;;;32.11;26.87;99648.28;5096910;27;46416;-62
2022/05/20 10:41:46;;;;;;;;;4.60;3.20;;;;;32.25;26.09;99644.72;5088052;27;45429;-62
2022/05/20 10:50:20;;;;;;;;;4.25;3.00;;;;;32.68;26.07;99644.88;5085326;27;45542;-62
2022/05/20 10:52:52;;;;;;;;;3.80;3.20;;;;;32.77;26.26;99635.59;5096304;27;45368;-63
2022/05/20 10:55:28;;;;;;;;;4.00;3.00;;;;;32.82;25.65;99624.94;5096269;27;45368;-63
2022/05/20 10:58:44;;;;;;;;;5.00;4.50;;;;;32.89;25.41;99625.84;5096943;27;45348;-63
2022/05/20 11:02:04;;;;;;;;;3.60;2.20;;;;;33.02;24.91;99613.34;5096683;27;46655;-62
2022/05/20 11:05:17;;;;;;;;;7.40;4.00;;;;;33.11;24.42;99618.53;4990543;28;45505;-63
2022/05/20 11:08:01;;;;;;;;;5.00;4.00;;;;;33.19;24.58;99623.84;5020482;27;45433;-63
2022/05/20 11:10:48;;;;;;;;;3.75;3.00;;;;;33.27;24.92;99620.19;5091080;27;45496;-63
2022/05/20 11:14:00;;;;;;;;;4.00;4.00;;;;;33.31;25.49;99635.16;5075309;28;45452;-62
2022/05/20 11:16:47;;;;;;;;;3.40;3.40;;;;;33.29;23.90;99609.91;5083353;27;45436;-63
2022/05/20 11:19:15;;;;;;;;;3.20;3.20;;;;;33.30;24.92;99597.94;5092727;27;45581;-62
2022/05/20 11:22:18;;;;;;;;;5.60;2.80;;;;;33.33;23.24;99596.72;5086396;27;45376;-62
2022/05/20 11:24:46;;;;;;;;;3.80;3.00;;;;;33.34;23.47;99599.25;5086809;27;45670;-64
2022/05/20 11:27:45;;;;;;;;;3.80;3.40;;;;;33.37;24.32;99595.25;5078763;27;45468;-63
2022/05/20 11:30:35;;;;;;;;;3.80;2.00;;;;;33.40;23.93;99606.63;5086001;27;45507;-63
2022/05/20 11:33:58;;;;;;;;;4.00;4.00;;;;;33.43;24.18;99602.66;5060216;27;46032;-63
2022/05/20 11:36:25;;;;;;;;;3.80;3.00;;;;;33.42;23.15;99592.78;5064807;27;46009;-63
2022/05/20 11:39:17;;;;;;;;;3.80;2.40;;;;;33.42;23.70;99590.88;5073970;28;45388;-63
2022/05/20 11:42:10;;;;;;;;;6.50;5.50;;;;;33.43;23.55;99595.31;5075766;28;45389;-63
2022/05/20 11:45:09;;;;;;;;;5.50;5.50;;;;;33.40;23.56;99590.22;5076187;27;45314;-63
2022/05/20 11:48:01;;;;;;;;;5.25;4.25;;;;;33.41;23.62;99582.88;5084079;27;46596;-63
2022/05/20 11:50:45;;;;;;;;;3.00;3.00;;;;;33.40;23.53;99579.31;5085412;27;45440;-64
2022/05/20 11:53:27;;;;;;;;;5.25;3.00;;;;;33.37;23.57;99587.03;5095896;27;45484;-63
2022/05/20 11:55:58;;;;;;;;;4.50;4.50;;;;;33.36;23.69;99586.19;5095856;27;45496;-63
2022/05/20 11:58:31;;;;;;;;;4.00;2.20;;;;;33.38;23.92;99580.53;5094525;27;46499;-63
2022/05/20 12:00:59;;;;;;;;;4.40;4.00;;;;;33.40;23.72;99581.19;5095438;27;45388;-63
2022/05/20 12:03:30;;;;;;;;;2.25;2.25;;;;;33.40;22.52;99590.22;5095089;27;45531;-63
2022/05/20 12:05:58;;;;;;;;;3.00;3.00;;;;;33.42;23.70;99579.97;5092721;27;45359;-63
2022/05/20 12:08:40;;;;;;;;;3.60;3.00;;;;;33.42;23.11;99582.69;5074588;28;46267;-63
2022/05/20 12:11:29;;;;;;;;;3.60;3.60;;;;;33.47;23.42;99582.94;5081697;27;45397;-63
2022/05/20 12:14:13;;;;;;;;;6.00;4.00;;;;;33.52;23.15;99585.06;5075443;28;45424;-63
2022/05/20 12:17:05;;;;;;;;;6.25;6.00;;;;;33.57;23.82;99585.34;5074874;28;45274;-63
2022/05/20 12:25:39;;;;;;;;;7.00;3.25;;;;;33.70;22.99;99577.22;5075618;28;45349;-63
2022/05/20 12:28:22;;;;;;;;;6.00;5.00;;;;;33.74;23.09;99585.88;5075774;28;45236;-63
2022/05/20 12:31:06;;;;;;;;;4.25;4.25;;;;;33.80;23.85;99580.50;5073944;27;45438;-63
2022/05/20 12:33:54;;;;;;;;;4.40;2.80;;;;;33.84;24.09;99572.75;5092042;27;45448;-63